sensor_id;sensor_type;location;lat;lon;timestamp;temperature;humidity
13426;DHT22;6785;57.918;12.530;2022-09-23T00:01:57;7.70;99.90
13426;DHT22;6785;57.918;12.530;2022-09-23T00:04:24;7.60;99.90
13426;DHT22;6785;57.918;12.530;2022-09-23T00:06:51;7.60;99.90
13426;DHT22;6785;57.918;12.530;2022-09-23T00:09:17;7.60;99.90
13426;DHT22;6785;57.918;12.530;2022-09-23T00:11:44;7.70;99.90
13426;DHT22;6785;57.918;12.530;2022-09-23T00:14:11;7.70;99.90
13426;DHT22;6785;57.918;12.530;2022-09-23T00:16:38;7.70;99.90
13426;DHT22;6785;57.918;12.530;2022-09-23T00:19:06;7.70;99.90
13426;DHT22;6785;57.918;12.530;2022-09-23T00:21:33;7.70;99.90
13426;DHT22;6785;57.918;12.530;2022-09-23T00:24:00;7.70;99.90
13426;DHT22;6785;57.918;12.530;2022-09-23T00:26:27;7.70;99.90
13426;DHT22;6785;57.918;12.530;2022-09-23T00:28:54;7.70;99.90
13426;DHT22;6785;57.918;12.530;2022-09-23T00:31:22;7.70;99.90
13426;DHT22;6785;57.918;12.530;2022-09-23T00:33:54;7.70;99.90
13426;DHT22;6785;57.918;12.530;2022-09-23T00:36:23;7.70;99.90
13426;DHT22;6785;57.918;12.530;2022-09-23T00:38:50;7.70;99.90
13426;DHT22;6785;57.918;12.530;2022-09-23T00:41:17;7.70;99.90
13426;DHT22;6785;57.918;12.530;2022-09-23T00:43:46;7.70;99.90
13426;DHT22;6785;57.918;12.530;2022-09-23T00:46:16;7.70;99.90
13426;DHT22;6785;57.918;12.530;2022-09-23T00:48:44;7.60;99.90
13426;DHT22;6785;57.918;12.530;2022-09-23T00:51:15;7.60;99.90
13426;DHT22;6785;57.918;12.530;2022-09-23T00:53:46;7.60;99.90
13426;DHT22;6785;57.918;12.530;2022-09-23T00:56:14;7.60;99.90
13426;DHT22;6785;57.918;12.530;2022-09-23T00:58:43;7.60;99.90
13426;DHT22;6785;57.918;12.530;2022-09-23T01:01:12;7.50;99.90
13426;DHT22;6785;57.918;12.530;2022-09-23T01:03:40;7.60;99.90
13426;DHT22;6785;57.918;12.530;2022-09-23T01:06:09;7.50;99.90
13426;DHT22;6785;57.918;12.530;2022-09-23T01:08:36;7.50;99.90
13426;DHT22;6785;57.918;12.530;2022-09-23T01:11:13;7.50;99.90
13426;DHT22;6785;57.918;12.530;2022-09-23T01:13:51;7.50;99.90
13426;DHT22;6785;57.918;12.530;2022-09-23T01:16:24;7.60;99.90
13426;DHT22;6785;57.918;12.530;2022-09-23T01:18:58;7.60;99.90
13426;DHT22;6785;57.918;12.530;2022-09-23T01:21:37;7.50;99.90
13426;DHT22;6785;57.918;12.530;2022-09-23T01:24:34;7.50;99.90
13426;DHT22;6785;57.918;12.530;2022-09-23T01:27:40;7.50;99.90
13426;DHT22;6785;57.918;12.530;2022-09-23T01:30:30;7.50;99.90
13426;DHT22;6785;57.918;12.530;2022-09-23T01:33:03;7.50;99.90
13426;DHT22;6785;57.918;12.530;2022-09-23T01:35:41;7.50;99.90
13426;DHT22;6785;57.918;12.530;2022-09-23T01:38:18;7.50;99.90
13426;DHT22;6785;57.918;12.530;2022-09-23T01:40:49;7.40;99.90
13426;DHT22;6785;57.918;12.530;2022-09-23T01:43:23;7.40;99.90
13426;DHT22;6785;57.918;12.530;2022-09-23T01:45:56;7.40;99.90
13426;DHT22;6785;57.918;12.530;2022-09-23T01:48:27;7.50;99.90
13426;DHT22;6785;57.918;12.530;2022-09-23T01:50:58;7.50;99.90
13426;DHT22;6785;57.918;12.530;2022-09-23T01:53:34;7.50;99.90
13426;DHT22;6785;57.918;12.530;2022-09-23T01:56:05;7.50;99.90
13426;DHT22;6785;57.918;12.530;2022-09-23T01:58:39;7.60;99.90
13426;DHT22;6785;57.918;12.530;2022-09-23T02:01:13;7.70;99.90
13426;DHT22;6785;57.918;12.530;2022-09-23T02:03:43;7.70;99.90
13426;DHT22;6785;57.918;12.530;2022-09-23T02:06:14;7.70;99.90
13426;DHT22;6785;57.918;12.530;2022-09-23T02:08:46;7.70;99.90
13426;DHT22;6785;57.918;12.530;2022-09-23T02:11:16;7.80;99.90
13426;DHT22;6785;57.918;12.530;2022-09-23T02:13:47;7.80;99.90
13426;DHT22;6785;57.918;12.530;2022-09-23T02:16:22;7.80;99.90
13426;DHT22;6785;57.918;12.530;2022-09-23T02:18:52;7.90;99.90
13426;DHT22;6785;57.918;12.530;2022-09-23T02:21:23;7.90;99.90
13426;DHT22;6785;57.918;12.530;2022-09-23T02:23:56;7.80;99.90
13426;DHT22;6785;57.918;12.530;2022-09-23T02:26:27;7.80;99.90
13426;DHT22;6785;57.918;12.530;2022-09-23T02:29:02;7.80;99.90
13426;DHT22;6785;57.918;12.530;2022-09-23T02:31:38;7.70;99.90
13426;DHT22;6785;57.918;12.530;2022-09-23T02:34:14;7.70;99.90
13426;DHT22;6785;57.918;12.530;2022-09-23T02:36:50;7.60;99.90
13426;DHT22;6785;57.918;12.530;2022-09-23T02:39:22;7.60;99.90
13426;DHT22;6785;57.918;12.530;2022-09-23T02:41:57;7.60;99.90
13426;DHT22;6785;57.918;12.530;2022-09-23T02:44:25;7.50;99.90
13426;DHT22;6785;57.918;12.530;2022-09-23T02:46:54;7.50;99.90
13426;DHT22;6785;57.918;12.530;2022-09-23T02:49:24;7.50;99.90
13426;DHT22;6785;57.918;12.530;2022-09-23T02:51:53;7.50;99.90
13426;DHT22;6785;57.918;12.530;2022-09-23T02:54:22;7.60;99.90
13426;DHT22;6785;57.918;12.530;2022-09-23T02:56:51;7.60;99.90
13426;DHT22;6785;57.918;12.530;2022-09-23T02:59:19;7.70;99.90
13426;DHT22;6785;57.918;12.530;2022-09-23T03:01:58;7.70;99.90
13426;DHT22;6785;57.918;12.530;2022-09-23T03:04:34;7.70;99.90
13426;DHT22;6785;57.918;12.530;2022-09-23T03:07:12;7.70;99.90
13426;DHT22;6785;57.918;12.530;2022-09-23T03:09:45;7.70;99.90
13426;DHT22;6785;57.918;12.530;2022-09-23T03:12:18;7.70;99.90
13426;DHT22;6785;57.918;12.530;2022-09-23T03:14:52;7.70;99.90
13426;DHT22;6785;57.918;12.530;2022-09-23T03:17:26;7.70;99.90
13426;DHT22;6785;57.918;12.530;2022-09-23T03:19:59;7.60;99.90
13426;DHT22;6785;57.918;12.530;2022-09-23T03:22:30;7.60;99.90
13426;DHT22;6785;57.918;12.530;2022-09-23T03:25:01;7.60;99.90
13426;DHT22;6785;57.918;12.530;2022-09-23T03:27:30;7.60;99.90
13426;DHT22;6785;57.918;12.530;2022-09-23T03:29:59;7.60;99.90
13426;DHT22;6785;57.918;12.530;2022-09-23T03:32:29;7.60;99.90
13426;DHT22;6785;57.918;12.530;2022-09-23T03:34:58;7.50;99.90
13426;DHT22;6785;57.918;12.530;2022-09-23T03:37:29;7.50;99.90
13426;DHT22;6785;57.918;12.530;2022-09-23T03:40:03;7.50;99.90
13426;DHT22;6785;57.918;12.530;2022-09-23T03:42:33;7.40;99.90
13426;DHT22;6785;57.918;12.530;2022-09-23T03:45:03;7.40;99.90
13426;DHT22;6785;57.918;12.530;2022-09-23T03:47:35;7.40;99.90
13426;DHT22;6785;57.918;12.530;2022-09-23T03:50:04;7.40;99.90
13426;DHT22;6785;57.918;12.530;2022-09-23T03:52:31;7.50;99.90
13426;DHT22;6785;57.918;12.530;2022-09-23T03:54:58;7.60;99.90
13426;DHT22;6785;57.918;12.530;2022-09-23T03:57:25;7.60;99.90
13426;DHT22;6785;57.918;12.530;2022-09-23T03:59:52;7.70;99.90
13426;DHT22;6785;57.918;12.530;2022-09-23T04:02:21;7.90;99.90
13426;DHT22;6785;57.918;12.530;2022-09-23T04:04:50;8.00;99.90
13426;DHT22;6785;57.918;12.530;2022-09-23T04:07:17;8.10;99.90
13426;DHT22;6785;57.918;12.530;2022-09-23T04:09:44;8.10;99.90
13426;DHT22;6785;57.918;12.530;2022-09-23T04:14:57;8.20;99.90
13426;DHT22;6785;57.918;12.530;2022-09-23T04:17:27;8.20;99.90
13426;DHT22;6785;57.918;12.530;2022-09-23T04:19:58;8.20;99.90
13426;DHT22;6785;57.918;12.530;2022-09-23T04:22:26;8.30;99.90
13426;DHT22;6785;57.918;12.530;2022-09-23T04:24:54;8.30;99.90
13426;DHT22;6785;57.918;12.530;2022-09-23T04:27:22;8.20;99.90
13426;DHT22;6785;57.918;12.530;2022-09-23T04:29:49;8.30;99.90
13426;DHT22;6785;57.918;12.530;2022-09-23T04:32:16;8.40;99.90
13426;DHT22;6785;57.918;12.530;2022-09-23T04:34:43;8.50;99.90
13426;DHT22;6785;57.918;12.530;2022-09-23T04:37:11;8.50;99.90
13426;DHT22;6785;57.918;12.530;2022-09-23T04:39:38;8.50;99.90
13426;DHT22;6785;57.918;12.530;2022-09-23T04:42:05;8.50;99.90
13426;DHT22;6785;57.918;12.530;2022-09-23T04:44:32;8.60;99.90
13426;DHT22;6785;57.918;12.530;2022-09-23T04:46:59;8.60;99.90
13426;DHT22;6785;57.918;12.530;2022-09-23T04:49:26;8.60;99.90
13426;DHT22;6785;57.918;12.530;2022-09-23T04:51:57;8.70;99.90
13426;DHT22;6785;57.918;12.530;2022-09-23T04:54:25;8.70;99.90
13426;DHT22;6785;57.918;12.530;2022-09-23T04:56:52;8.70;99.90
13426;DHT22;6785;57.918;12.530;2022-09-23T04:59:19;8.80;99.90
13426;DHT22;6785;57.918;12.530;2022-09-23T05:01:46;8.80;99.90
13426;DHT22;6785;57.918;12.530;2022-09-23T05:04:13;8.80;99.90
13426;DHT22;6785;57.918;12.530;2022-09-23T05:06:40;8.90;99.90
13426;DHT22;6785;57.918;12.530;2022-09-23T05:09:13;8.90;99.90
13426;DHT22;6785;57.918;12.530;2022-09-23T05:11:43;8.90;99.90
13426;DHT22;6785;57.918;12.530;2022-09-23T05:14:10;8.90;99.90
13426;DHT22;6785;57.918;12.530;2022-09-23T05:16:37;9.00;99.90
13426;DHT22;6785;57.918;12.530;2022-09-23T05:19:05;9.00;99.90
13426;DHT22;6785;57.918;12.530;2022-09-23T05:21:31;9.00;99.90
13426;DHT22;6785;57.918;12.530;2022-09-23T05:23:58;9.00;99.90
13426;DHT22;6785;57.918;12.530;2022-09-23T05:26:28;9.10;99.90
13426;DHT22;6785;57.918;12.530;2022-09-23T05:28:57;9.10;99.90
13426;DHT22;6785;57.918;12.530;2022-09-23T05:31:25;9.10;99.90
13426;DHT22;6785;57.918;12.530;2022-09-23T05:33:55;9.10;99.90
13426;DHT22;6785;57.918;12.530;2022-09-23T05:36:23;9.10;99.90
13426;DHT22;6785;57.918;12.530;2022-09-23T05:38:50;9.10;99.90
13426;DHT22;6785;57.918;12.530;2022-09-23T05:41:19;9.20;99.90
13426;DHT22;6785;57.918;12.530;2022-09-23T05:43:47;9.20;99.90
13426;DHT22;6785;57.918;12.530;2022-09-23T05:46:18;9.20;99.90
13426;DHT22;6785;57.918;12.530;2022-09-23T05:48:46;9.30;99.90
13426;DHT22;6785;57.918;12.530;2022-09-23T05:51:14;9.30;99.90
13426;DHT22;6785;57.918;12.530;2022-09-23T05:53:42;9.20;99.90
13426;DHT22;6785;57.918;12.530;2022-09-23T05:56:10;9.30;99.90
13426;DHT22;6785;57.918;12.530;2022-09-23T05:58:37;9.30;99.90
13426;DHT22;6785;57.918;12.530;2022-09-23T06:01:09;9.30;99.90
13426;DHT22;6785;57.918;12.530;2022-09-23T06:03:38;9.30;99.90
13426;DHT22;6785;57.918;12.530;2022-09-23T06:06:05;9.30;99.90
13426;DHT22;6785;57.918;12.530;2022-09-23T06:08:32;9.30;99.90
13426;DHT22;6785;57.918;12.530;2022-09-23T06:11:03;9.30;99.90
13426;DHT22;6785;57.918;12.530;2022-09-23T06:13:32;9.40;99.90
13426;DHT22;6785;57.918;12.530;2022-09-23T06:16:00;9.40;99.90
13426;DHT22;6785;57.918;12.530;2022-09-23T06:18:27;9.40;99.90
13426;DHT22;6785;57.918;12.530;2022-09-23T06:20:55;9.50;99.90
13426;DHT22;6785;57.918;12.530;2022-09-23T06:23:25;9.50;99.90
13426;DHT22;6785;57.918;12.530;2022-09-23T06:25:52;9.50;99.90
13426;DHT22;6785;57.918;12.530;2022-09-23T06:28:19;9.60;99.90
13426;DHT22;6785;57.918;12.530;2022-09-23T06:30:47;9.80;99.90
13426;DHT22;6785;57.918;12.530;2022-09-23T06:33:14;9.90;99.90
13426;DHT22;6785;57.918;12.530;2022-09-23T06:35:41;10.00;99.90
13426;DHT22;6785;57.918;12.530;2022-09-23T06:38:09;10.20;99.90
13426;DHT22;6785;57.918;12.530;2022-09-23T06:40:36;10.30;99.90
13426;DHT22;6785;57.918;12.530;2022-09-23T06:43:03;10.40;99.90
13426;DHT22;6785;57.918;12.530;2022-09-23T06:45:30;10.50;99.90
13426;DHT22;6785;57.918;12.530;2022-09-23T06:47:57;10.60;99.90
13426;DHT22;6785;57.918;12.530;2022-09-23T06:50:25;10.70;99.90
13426;DHT22;6785;57.918;12.530;2022-09-23T06:52:52;10.70;99.90
13426;DHT22;6785;57.918;12.530;2022-09-23T06:55:22;10.80;99.90
13426;DHT22;6785;57.918;12.530;2022-09-23T06:57:49;10.90;99.90
13426;DHT22;6785;57.918;12.530;2022-09-23T07:00:16;10.90;99.90
13426;DHT22;6785;57.918;12.530;2022-09-23T07:02:43;11.00;99.90
13426;DHT22;6785;57.918;12.530;2022-09-23T07:05:10;11.10;99.90
13426;DHT22;6785;57.918;12.530;2022-09-23T07:07:38;11.20;99.90
13426;DHT22;6785;57.918;12.530;2022-09-23T07:10:06;11.30;99.90
13426;DHT22;6785;57.918;12.530;2022-09-23T07:12:35;11.30;99.90
13426;DHT22;6785;57.918;12.530;2022-09-23T07:15:02;11.40;99.90
13426;DHT22;6785;57.918;12.530;2022-09-23T07:17:30;11.40;99.90
13426;DHT22;6785;57.918;12.530;2022-09-23T07:19:56;11.40;99.90
13426;DHT22;6785;57.918;12.530;2022-09-23T07:22:24;11.50;99.90
13426;DHT22;6785;57.918;12.530;2022-09-23T07:24:51;11.60;99.90
13426;DHT22;6785;57.918;12.530;2022-09-23T07:27:21;11.60;99.90
13426;DHT22;6785;57.918;12.530;2022-09-23T07:29:50;11.60;99.90
13426;DHT22;6785;57.918;12.530;2022-09-23T07:32:18;11.70;99.90
13426;DHT22;6785;57.918;12.530;2022-09-23T07:34:46;11.80;99.90
13426;DHT22;6785;57.918;12.530;2022-09-23T07:37:13;11.90;99.90
13426;DHT22;6785;57.918;12.530;2022-09-23T07:39:40;11.90;99.90
13426;DHT22;6785;57.918;12.530;2022-09-23T07:44:36;12.10;99.90
13426;DHT22;6785;57.918;12.530;2022-09-23T07:47:07;12.20;99.90
13426;DHT22;6785;57.918;12.530;2022-09-23T07:49:36;12.30;99.90
13426;DHT22;6785;57.918;12.530;2022-09-23T07:52:03;12.30;99.90
13426;DHT22;6785;57.918;12.530;2022-09-23T07:54:30;12.40;99.90
13426;DHT22;6785;57.918;12.530;2022-09-23T07:56:58;12.50;99.90
13426;DHT22;6785;57.918;12.530;2022-09-23T07:59:25;12.60;99.90
13426;DHT22;6785;57.918;12.530;2022-09-23T08:01:53;12.60;99.90
13426;DHT22;6785;57.918;12.530;2022-09-23T08:04:25;12.80;99.90
13426;DHT22;6785;57.918;12.530;2022-09-23T08:06:54;12.90;99.90
13426;DHT22;6785;57.918;12.530;2022-09-23T08:09:23;13.00;99.90
13426;DHT22;6785;57.918;12.530;2022-09-23T08:11:51;13.10;99.90
13426;DHT22;6785;57.918;12.530;2022-09-23T08:14:18;13.20;99.90
13426;DHT22;6785;57.918;12.530;2022-09-23T08:16:47;13.20;99.90
13426;DHT22;6785;57.918;12.530;2022-09-23T08:19:14;13.30;99.90
13426;DHT22;6785;57.918;12.530;2022-09-23T08:21:44;13.30;99.90
13426;DHT22;6785;57.918;12.530;2022-09-23T08:24:13;13.30;99.90
13426;DHT22;6785;57.918;12.530;2022-09-23T08:26:40;13.40;99.90
13426;DHT22;6785;57.918;12.530;2022-09-23T08:29:07;13.40;99.90
13426;DHT22;6785;57.918;12.530;2022-09-23T08:31:35;13.40;99.90
13426;DHT22;6785;57.918;12.530;2022-09-23T08:34:02;13.50;99.90
13426;DHT22;6785;57.918;12.530;2022-09-23T08:36:30;13.60;99.90
13426;DHT22;6785;57.918;12.530;2022-09-23T08:38:59;13.70;99.90
13426;DHT22;6785;57.918;12.530;2022-09-23T08:41:35;13.70;99.90
13426;DHT22;6785;57.918;12.530;2022-09-23T08:44:09;13.70;99.90
13426;DHT22;6785;57.918;12.530;2022-09-23T08:46:42;13.70;99.90
13426;DHT22;6785;57.918;12.530;2022-09-23T08:49:15;13.50;99.90
13426;DHT22;6785;57.918;12.530;2022-09-23T08:51:45;13.50;99.90
13426;DHT22;6785;57.918;12.530;2022-09-23T08:54:15;13.50;99.90
13426;DHT22;6785;57.918;12.530;2022-09-23T08:56:44;13.60;99.90
13426;DHT22;6785;57.918;12.530;2022-09-23T08:59:17;13.70;99.90
13426;DHT22;6785;57.918;12.530;2022-09-23T09:01:49;13.60;99.90
13426;DHT22;6785;57.918;12.530;2022-09-23T09:04:22;13.70;99.90
13426;DHT22;6785;57.918;12.530;2022-09-23T09:06:54;13.70;99.90
13426;DHT22;6785;57.918;12.530;2022-09-23T09:09:26;13.70;99.90
13426;DHT22;6785;57.918;12.530;2022-09-23T09:11:58;13.70;99.90
13426;DHT22;6785;57.918;12.530;2022-09-23T09:14:34;13.70;99.90
13426;DHT22;6785;57.918;12.530;2022-09-23T09:17:04;13.70;99.90
13426;DHT22;6785;57.918;12.530;2022-09-23T09:19:53;13.70;99.90
13426;DHT22;6785;57.918;12.530;2022-09-23T09:22:27;13.70;99.90
13426;DHT22;6785;57.918;12.530;2022-09-23T09:25:05;13.80;99.90
13426;DHT22;6785;57.918;12.530;2022-09-23T09:27:38;13.90;99.90
13426;DHT22;6785;57.918;12.530;2022-09-23T09:30:11;13.90;99.90
13426;DHT22;6785;57.918;12.530;2022-09-23T09:32:41;14.00;99.90
13426;DHT22;6785;57.918;12.530;2022-09-23T09:35:19;14.10;99.90
13426;DHT22;6785;57.918;12.530;2022-09-23T09:37:49;14.20;99.90
13426;DHT22;6785;57.918;12.530;2022-09-23T09:40:18;14.20;99.90
13426;DHT22;6785;57.918;12.530;2022-09-23T09:42:48;14.30;99.90
13426;DHT22;6785;57.918;12.530;2022-09-23T09:45:23;14.20;99.90
13426;DHT22;6785;57.918;12.530;2022-09-23T09:47:58;14.40;99.90
13426;DHT22;6785;57.918;12.530;2022-09-23T09:50:42;14.50;99.90
13426;DHT22;6785;57.918;12.530;2022-09-23T09:53:15;14.40;99.90
13426;DHT22;6785;57.918;12.530;2022-09-23T09:55:45;14.50;99.90
13426;DHT22;6785;57.918;12.530;2022-09-23T09:58:13;14.50;99.90
13426;DHT22;6785;57.918;12.530;2022-09-23T10:00:42;14.50;99.90
13426;DHT22;6785;57.918;12.530;2022-09-23T10:03:32;14.60;99.90
13426;DHT22;6785;57.918;12.530;2022-09-23T10:06:01;14.50;99.90
13426;DHT22;6785;57.918;12.530;2022-09-23T10:08:38;14.50;99.90
13426;DHT22;6785;57.918;12.530;2022-09-23T10:11:12;14.60;99.90
13426;DHT22;6785;57.918;12.530;2022-09-23T10:13:41;14.70;99.90
13426;DHT22;6785;57.918;12.530;2022-09-23T10:16:09;14.80;99.90
13426;DHT22;6785;57.918;12.530;2022-09-23T10:18:38;14.80;99.90
13426;DHT22;6785;57.918;12.530;2022-09-23T10:21:07;14.90;99.90
13426;DHT22;6785;57.918;12.530;2022-09-23T10:23:40;15.00;99.90
13426;DHT22;6785;57.918;12.530;2022-09-23T10:26:11;15.00;99.90
13426;DHT22;6785;57.918;12.530;2022-09-23T10:28:44;15.20;99.90
13426;DHT22;6785;57.918;12.530;2022-09-23T10:31:13;15.40;99.90
13426;DHT22;6785;57.918;12.530;2022-09-23T10:33:43;15.40;99.90
13426;DHT22;6785;57.918;12.530;2022-09-23T10:36:14;15.30;99.90
13426;DHT22;6785;57.918;12.530;2022-09-23T10:38:41;15.20;99.90
13426;DHT22;6785;57.918;12.530;2022-09-23T10:41:16;15.10;99.90
13426;DHT22;6785;57.918;12.530;2022-09-23T10:44:19;15.10;99.90
13426;DHT22;6785;57.918;12.530;2022-09-23T10:47:12;15.20;99.90
13426;DHT22;6785;57.918;12.530;2022-09-23T10:50:02;15.30;99.90
13426;DHT22;6785;57.918;12.530;2022-09-23T10:52:47;15.30;99.90
13426;DHT22;6785;57.918;12.530;2022-09-23T10:55:33;15.30;99.90
13426;DHT22;6785;57.918;12.530;2022-09-23T10:58:17;15.30;99.90
13426;DHT22;6785;57.918;12.530;2022-09-23T11:00:54;15.20;99.90
13426;DHT22;6785;57.918;12.530;2022-09-23T11:03:58;15.10;99.90
13426;DHT22;6785;57.918;12.530;2022-09-23T11:06:40;15.20;99.90
13426;DHT22;6785;57.918;12.530;2022-09-23T11:09:22;15.10;99.90
13426;DHT22;6785;57.918;12.530;2022-09-23T11:12:03;15.10;99.90
13426;DHT22;6785;57.918;12.530;2022-09-23T11:15:05;15.20;99.90
13426;DHT22;6785;57.918;12.530;2022-09-23T11:18:01;15.40;99.90
13426;DHT22;6785;57.918;12.530;2022-09-23T11:20:40;15.70;99.90
13426;DHT22;6785;57.918;12.530;2022-09-23T11:23:49;15.80;99.90
13426;DHT22;6785;57.918;12.530;2022-09-23T11:26:28;15.90;99.90
13426;DHT22;6785;57.918;12.530;2022-09-23T11:29:20;15.90;99.90
13426;DHT22;6785;57.918;12.530;2022-09-23T11:32:00;15.70;99.90
13426;DHT22;6785;57.918;12.530;2022-09-23T11:34:43;15.70;99.90
13426;DHT22;6785;57.918;12.530;2022-09-23T11:37:18;15.60;99.90
13426;DHT22;6785;57.918;12.530;2022-09-23T11:39:49;15.60;99.90
13426;DHT22;6785;57.918;12.530;2022-09-23T11:42:23;15.60;99.90
13426;DHT22;6785;57.918;12.530;2022-09-23T11:44:54;15.60;99.90
13426;DHT22;6785;57.918;12.530;2022-09-23T11:47:27;15.70;99.90
13426;DHT22;6785;57.918;12.530;2022-09-23T11:49:59;15.80;99.90
13426;DHT22;6785;57.918;12.530;2022-09-23T11:52:31;15.80;99.90
13426;DHT22;6785;57.918;12.530;2022-09-23T11:55:04;15.90;99.90
13426;DHT22;6785;57.918;12.530;2022-09-23T11:57:38;16.00;99.90
13426;DHT22;6785;57.918;12.530;2022-09-23T12:00:13;16.00;99.90
13426;DHT22;6785;57.918;12.530;2022-09-23T12:02:53;16.10;99.90
13426;DHT22;6785;57.918;12.530;2022-09-23T12:05:28;16.20;99.90
13426;DHT22;6785;57.918;12.530;2022-09-23T12:08:02;16.10;99.90
13426;DHT22;6785;57.918;12.530;2022-09-23T12:10:39;16.10;99.90
13426;DHT22;6785;57.918;12.530;2022-09-23T12:13:16;16.00;99.90
13426;DHT22;6785;57.918;12.530;2022-09-23T12:15:55;16.10;99.90
13426;DHT22;6785;57.918;12.530;2022-09-23T12:18:44;16.10;99.90
13426;DHT22;6785;57.918;12.530;2022-09-23T12:21:39;16.10;99.90
13426;DHT22;6785;57.918;12.530;2022-09-23T12:24:25;16.10;99.90
13426;DHT22;6785;57.918;12.530;2022-09-23T12:26:55;16.00;99.90
13426;DHT22;6785;57.918;12.530;2022-09-23T12:29:26;15.90;99.90
13426;DHT22;6785;57.918;12.530;2022-09-23T12:31:56;15.70;99.90
13426;DHT22;6785;57.918;12.530;2022-09-23T12:34:29;15.60;99.90
13426;DHT22;6785;57.918;12.530;2022-09-23T12:37:01;15.50;99.90
13426;DHT22;6785;57.918;12.530;2022-09-23T12:39:30;15.60;99.90
13426;DHT22;6785;57.918;12.530;2022-09-23T12:42:00;15.60;99.90
13426;DHT22;6785;57.918;12.530;2022-09-23T12:44:34;15.60;99.90
13426;DHT22;6785;57.918;12.530;2022-09-23T12:47:29;15.70;99.90
13426;DHT22;6785;57.918;12.530;2022-09-23T12:49:58;15.80;99.90
13426;DHT22;6785;57.918;12.530;2022-09-23T12:52:26;15.90;99.90
13426;DHT22;6785;57.918;12.530;2022-09-23T12:54:57;15.80;99.90
13426;DHT22;6785;57.918;12.530;2022-09-23T12:57:39;15.90;99.90
13426;DHT22;6785;57.918;12.530;2022-09-23T13:00:21;15.90;99.90
13426;DHT22;6785;57.918;12.530;2022-09-23T13:02:56;15.90;99.90
13426;DHT22;6785;57.918;12.530;2022-09-23T13:05:46;16.00;99.90
13426;DHT22;6785;57.918;12.530;2022-09-23T13:08:34;16.20;99.90
13426;DHT22;6785;57.918;12.530;2022-09-23T13:11:06;16.40;99.90
13426;DHT22;6785;57.918;12.530;2022-09-23T13:13:36;16.50;99.90
13426;DHT22;6785;57.918;12.530;2022-09-23T13:16:11;16.60;99.90
13426;DHT22;6785;57.918;12.530;2022-09-23T13:18:57;16.60;99.90
13426;DHT22;6785;57.918;12.530;2022-09-23T13:22:03;16.50;99.90
13426;DHT22;6785;57.918;12.530;2022-09-23T13:24:52;16.30;99.90
13426;DHT22;6785;57.918;12.530;2022-09-23T13:27:23;16.30;99.90
13426;DHT22;6785;57.918;12.530;2022-09-23T13:29:58;16.30;99.90
13426;DHT22;6785;57.918;12.530;2022-09-23T13:32:29;16.20;99.90
13426;DHT22;6785;57.918;12.530;2022-09-23T13:35:00;16.10;99.90
13426;DHT22;6785;57.918;12.530;2022-09-23T13:37:41;16.10;99.90
13426;DHT22;6785;57.918;12.530;2022-09-23T13:40:16;16.00;99.90
13426;DHT22;6785;57.918;12.530;2022-09-23T13:42:46;15.90;99.90
13426;DHT22;6785;57.918;12.530;2022-09-23T13:45:16;15.90;99.90
13426;DHT22;6785;57.918;12.530;2022-09-23T13:47:45;15.80;99.90
13426;DHT22;6785;57.918;12.530;2022-09-23T13:50:18;15.70;99.90
13426;DHT22;6785;57.918;12.530;2022-09-23T13:52:52;15.60;99.90
13426;DHT22;6785;57.918;12.530;2022-09-23T13:55:29;15.60;99.90
13426;DHT22;6785;57.918;12.530;2022-09-23T13:57:59;15.50;99.90
13426;DHT22;6785;57.918;12.530;2022-09-23T14:00:35;15.50;99.90
13426;DHT22;6785;57.918;12.530;2022-09-23T14:03:15;15.50;99.90
13426;DHT22;6785;57.918;12.530;2022-09-23T14:05:43;15.50;99.90
13426;DHT22;6785;57.918;12.530;2022-09-23T14:08:12;15.60;99.90
13426;DHT22;6785;57.918;12.530;2022-09-23T14:10:39;15.50;99.90
13426;DHT22;6785;57.918;12.530;2022-09-23T14:13:13;15.50;99.90
13426;DHT22;6785;57.918;12.530;2022-09-23T14:15:40;15.50;99.90
13426;DHT22;6785;57.918;12.530;2022-09-23T14:18:07;15.60;99.90
13426;DHT22;6785;57.918;12.530;2022-09-23T14:20:44;15.60;99.90
13426;DHT22;6785;57.918;12.530;2022-09-23T14:23:13;15.60;99.90
13426;DHT22;6785;57.918;12.530;2022-09-23T14:25:42;15.50;99.90
13426;DHT22;6785;57.918;12.530;2022-09-23T14:28:14;15.50;99.90
13426;DHT22;6785;57.918;12.530;2022-09-23T14:30:42;15.40;99.90
13426;DHT22;6785;57.918;12.530;2022-09-23T14:33:14;15.30;99.90
13426;DHT22;6785;57.918;12.530;2022-09-23T14:35:47;15.30;99.90
13426;DHT22;6785;57.918;12.530;2022-09-23T14:38:23;15.20;99.90
13426;DHT22;6785;57.918;12.530;2022-09-23T14:41:29;15.20;99.90
13426;DHT22;6785;57.918;12.530;2022-09-23T14:44:00;15.10;99.90
13426;DHT22;6785;57.918;12.530;2022-09-23T14:46:30;15.10;99.90
13426;DHT22;6785;57.918;12.530;2022-09-23T14:49:01;15.00;99.90
13426;DHT22;6785;57.918;12.530;2022-09-23T14:51:33;15.00;99.90
13426;DHT22;6785;57.918;12.530;2022-09-23T14:54:29;15.00;99.90
13426;DHT22;6785;57.918;12.530;2022-09-23T14:56:57;14.90;99.90
13426;DHT22;6785;57.918;12.530;2022-09-23T14:59:27;14.90;99.90
13426;DHT22;6785;57.918;12.530;2022-09-23T15:01:54;14.80;99.90
13426;DHT22;6785;57.918;12.530;2022-09-23T15:04:30;14.80;99.90
13426;DHT22;6785;57.918;12.530;2022-09-23T15:07:06;14.70;99.90
13426;DHT22;6785;57.918;12.530;2022-09-23T15:09:38;14.70;99.90
13426;DHT22;6785;57.918;12.530;2022-09-23T15:12:10;14.60;99.90
13426;DHT22;6785;57.918;12.530;2022-09-23T15:14:40;14.60;99.90
13426;DHT22;6785;57.918;12.530;2022-09-23T15:17:23;14.50;99.90
13426;DHT22;6785;57.918;12.530;2022-09-23T15:19:52;14.40;99.90
13426;DHT22;6785;57.918;12.530;2022-09-23T15:22:21;14.40;99.90
13426;DHT22;6785;57.918;12.530;2022-09-23T15:24:51;14.40;99.90
13426;DHT22;6785;57.918;12.530;2022-09-23T15:27:28;14.30;99.90
13426;DHT22;6785;57.918;12.530;2022-09-23T15:30:03;14.30;99.90
13426;DHT22;6785;57.918;12.530;2022-09-23T15:32:33;14.30;99.90
13426;DHT22;6785;57.918;12.530;2022-09-23T15:35:00;14.30;99.90
13426;DHT22;6785;57.918;12.530;2022-09-23T15:37:27;14.40;99.90
13426;DHT22;6785;57.918;12.530;2022-09-23T15:39:55;14.40;99.90
13426;DHT22;6785;57.918;12.530;2022-09-23T15:42:22;14.30;99.90
13426;DHT22;6785;57.918;12.530;2022-09-23T15:44:50;14.30;99.90
13426;DHT22;6785;57.918;12.530;2022-09-23T15:47:17;14.30;99.90
13426;DHT22;6785;57.918;12.530;2022-09-23T15:49:46;14.30;99.90
13426;DHT22;6785;57.918;12.530;2022-09-23T15:52:13;14.20;99.90
13426;DHT22;6785;57.918;12.530;2022-09-23T15:54:42;14.20;99.90
13426;DHT22;6785;57.918;12.530;2022-09-23T15:57:12;14.20;99.90
13426;DHT22;6785;57.918;12.530;2022-09-23T15:59:39;14.10;99.90
13426;DHT22;6785;57.918;12.530;2022-09-23T16:02:14;14.10;99.90
13426;DHT22;6785;57.918;12.530;2022-09-23T16:04:43;14.00;99.90
13426;DHT22;6785;57.918;12.530;2022-09-23T16:07:14;14.00;99.90
13426;DHT22;6785;57.918;12.530;2022-09-23T16:09:42;14.00;99.90
13426;DHT22;6785;57.918;12.530;2022-09-23T16:12:11;13.90;99.90
13426;DHT22;6785;57.918;12.530;2022-09-23T16:14:38;13.90;99.90